sensor_id;sensor_type;location;lat;lon;timestamp;pressure;altitude;pressure_sealevel;temperature;humidity
33404;BME280;19751;40.274;18.268;2023-04-10T00:00:04;101194.19;;;10.85;100.00
33404;BME280;19751;40.274;18.268;2023-04-10T00:02:31;101187.78;;;10.86;100.00
33404;BME280;19751;40.274;18.268;2023-04-10T00:04:57;101181.00;;;10.90;100.00
33404;BME280;19751;40.274;18.268;2023-04-10T00:07:22;101189.91;;;10.90;100.00
33404;BME280;19751;40.274;18.268;2023-04-10T00:09:48;101182.69;;;10.91;100.00
33404;BME280;19751;40.274;18.268;2023-04-10T00:12:13;101181.84;;;10.90;100.00
33404;BME280;19751;40.274;18.268;2023-04-10T00:14:40;101184.53;;;10.90;100.00
33404;BME280;19751;40.274;18.268;2023-04-10T00:17:13;101183.69;;;10.90;100.00
33404;BME280;19751;40.274;18.268;2023-04-10T00:19:39;101183.22;;;10.86;100.00
33404;BME280;19751;40.274;18.268;2023-04-10T00:22:04;101181.25;;;10.80;100.00
33404;BME280;19751;40.274;18.268;2023-04-10T00:24:30;101180.06;;;10.60;100.00
33404;BME280;19751;40.274;18.268;2023-04-10T00:26:56;101170.66;;;10.56;100.00
33404;BME280;19751;40.274;18.268;2023-04-10T00:29:22;101163.25;;;10.58;100.00
33404;BME280;19751;40.274;18.268;2023-04-10T00:31:47;101162.38;;;10.57;100.00
33404;BME280;19751;40.274;18.268;2023-04-10T00:34:14;101156.34;;;10.55;100.00
33404;BME280;19751;40.274;18.268;2023-04-10T00:36:39;101162.75;;;10.54;100.00
33404;BME280;19751;40.274;18.268;2023-04-10T00:39:05;101158.22;;;10.55;100.00
33404;BME280;19751;40.274;18.268;2023-04-10T00:41:31;101148.81;;;10.51;100.00
33404;BME280;19751;40.274;18.268;2023-04-10T00:43:58;101154.19;;;10.51;100.00
33404;BME280;19751;40.274;18.268;2023-04-10T00:46:24;101153.16;;;10.52;100.00
33404;BME280;19751;40.274;18.268;2023-04-10T00:48:51;101148.81;;;10.51;100.00
33404;BME280;19751;40.274;18.268;2023-04-10T00:51:17;101159.22;;;10.54;100.00
33404;BME280;19751;40.274;18.268;2023-04-10T00:53:46;101151.78;;;10.56;100.00
33404;BME280;19751;40.274;18.268;2023-04-10T00:56:12;101147.44;;;10.55;100.00
33404;BME280;19751;40.274;18.268;2023-04-10T00:58:37;101153.31;;;10.58;100.00
33404;BME280;19751;40.274;18.268;2023-04-10T01:01:03;101150.41;;;10.60;100.00
33404;BME280;19751;40.274;18.268;2023-04-10T01:03:29;101153.59;;;10.63;100.00
33404;BME280;19751;40.274;18.268;2023-04-10T01:11:48;101146.63;;;10.69;100.00
33404;BME280;19751;40.274;18.268;2023-04-10T01:14:26;101143.41;;;10.74;100.00
33404;BME280;19751;40.274;18.268;2023-04-10T01:16:59;101146.56;;;10.77;100.00
33404;BME280;19751;40.274;18.268;2023-04-10T01:22:16;101145.03;;;10.60;100.00
33404;BME280;19751;40.274;18.268;2023-04-10T01:30:31;101140.06;;;10.49;100.00
33404;BME280;19751;40.274;18.268;2023-04-10T01:33:00;101151.31;;;10.52;100.00
33404;BME280;19751;40.274;18.268;2023-04-10T01:35:29;101145.22;;;10.58;100.00
33404;BME280;19751;40.274;18.268;2023-04-10T01:37:56;101148.06;;;10.57;100.00
33404;BME280;19751;40.274;18.268;2023-04-10T01:40:23;101149.16;;;10.48;100.00
33404;BME280;19751;40.274;18.268;2023-04-10T01:42:52;101151.91;;;10.39;100.00
33404;BME280;19751;40.274;18.268;2023-04-10T01:45:22;101144.72;;;10.32;100.00
33404;BME280;19751;40.274;18.268;2023-04-10T01:47:49;101143.56;;;10.26;100.00
33404;BME280;19751;40.274;18.268;2023-04-10T01:50:15;101138.38;;;10.25;100.00
33404;BME280;19751;40.274;18.268;2023-04-10T01:52:42;101128.75;;;10.22;100.00
33404;BME280;19751;40.274;18.268;2023-04-10T01:55:09;101131.16;;;10.17;100.00
33404;BME280;19751;40.274;18.268;2023-04-10T01:57:36;101133.34;;;10.13;100.00
33404;BME280;19751;40.274;18.268;2023-04-10T02:00:02;101127.50;;;10.10;100.00
33404;BME280;19751;40.274;18.268;2023-04-10T02:02:32;101129.03;;;10.04;100.00
33404;BME280;19751;40.274;18.268;2023-04-10T02:04:57;101119.25;;;10.03;100.00
33404;BME280;19751;40.274;18.268;2023-04-10T02:07:35;101119.81;;;9.99;100.00
33404;BME280;19751;40.274;18.268;2023-04-10T02:10:14;101114.66;;;9.89;100.00
33404;BME280;19751;40.274;18.268;2023-04-10T02:12:55;101117.88;;;9.84;100.00
33404;BME280;19751;40.274;18.268;2023-04-10T02:15:23;101123.78;;;9.80;100.00
33404;BME280;19751;40.274;18.268;2023-04-10T02:17:51;101121.78;;;9.74;100.00
33404;BME280;19751;40.274;18.268;2023-04-10T02:20:17;101124.69;;;9.64;100.00
33404;BME280;19751;40.274;18.268;2023-04-10T02:22:43;101115.47;;;9.58;100.00
33404;BME280;19751;40.274;18.268;2023-04-10T02:25:09;101113.28;;;9.54;100.00
33404;BME280;19751;40.274;18.268;2023-04-10T02:27:35;101113.13;;;9.55;100.00
33404;BME280;19751;40.274;18.268;2023-04-10T02:30:02;101112.94;;;9.57;100.00
33404;BME280;19751;40.274;18.268;2023-04-10T02:32:29;101110.09;;;9.58;100.00
33404;BME280;19751;40.274;18.268;2023-04-10T02:34:55;101110.53;;;9.62;100.00
33404;BME280;19751;40.274;18.268;2023-04-10T02:37:21;101107.22;;;9.60;100.00
33404;BME280;19751;40.274;18.268;2023-04-10T02:39:47;101102.34;;;9.55;100.00
33404;BME280;19751;40.274;18.268;2023-04-10T02:42:13;101099.34;;;9.50;100.00
33404;BME280;19751;40.274;18.268;2023-04-10T02:44:39;101109.25;;;9.50;100.00
33404;BME280;19751;40.274;18.268;2023-04-10T02:47:05;101101.03;;;9.51;100.00
33404;BME280;19751;40.274;18.268;2023-04-10T02:49:32;101089.75;;;9.56;100.00
33404;BME280;19751;40.274;18.268;2023-04-10T02:51:59;101088.72;;;9.57;100.00
33404;BME280;19751;40.274;18.268;2023-04-10T02:54:25;101079.47;;;9.59;100.00
33404;BME280;19751;40.274;18.268;2023-04-10T02:56:50;101078.28;;;9.62;100.00
33404;BME280;19751;40.274;18.268;2023-04-10T02:59:15;101077.63;;;9.60;100.00
33404;BME280;19751;40.274;18.268;2023-04-10T03:01:45;101075.63;;;9.54;100.00
33404;BME280;19751;40.274;18.268;2023-04-10T03:04:11;101077.84;;;9.50;100.00
33404;BME280;19751;40.274;18.268;2023-04-10T03:06:36;101082.72;;;9.46;100.00
33404;BME280;19751;40.274;18.268;2023-04-10T03:09:02;101079.34;;;9.44;100.00
33404;BME280;19751;40.274;18.268;2023-04-10T03:11:27;101070.75;;;9.49;100.00
33404;BME280;19751;40.274;18.268;2023-04-10T03:13:53;101083.75;;;9.45;100.00
33404;BME280;19751;40.274;18.268;2023-04-10T03:16:19;101076.66;;;9.44;100.00
33404;BME280;19751;40.274;18.268;2023-04-10T03:18:45;101074.81;;;9.45;100.00
33404;BME280;19751;40.274;18.268;2023-04-10T03:21:10;101076.16;;;9.49;100.00
33404;BME280;19751;40.274;18.268;2023-04-10T03:23:36;101077.69;;;9.43;100.00
33404;BME280;19751;40.274;18.268;2023-04-10T03:26:02;101073.66;;;9.39;100.00
33404;BME280;19751;40.274;18.268;2023-04-10T03:28:29;101069.31;;;9.38;100.00
33404;BME280;19751;40.274;18.268;2023-04-10T03:30:54;101068.13;;;9.33;100.00
33404;BME280;19751;40.274;18.268;2023-04-10T03:33:20;101061.78;;;9.34;100.00
33404;BME280;19751;40.274;18.268;2023-04-10T03:35:45;101073.69;;;9.31;100.00
33404;BME280;19751;40.274;18.268;2023-04-10T03:38:11;101069.31;;;9.38;100.00
33404;BME280;19751;40.274;18.268;2023-04-10T03:40:37;101076.97;;;9.50;100.00
33404;BME280;19751;40.274;18.268;2023-04-10T03:43:02;101088.06;;;9.55;100.00
33404;BME280;19751;40.274;18.268;2023-04-10T03:45:28;101087.22;;;9.62;100.00
33404;BME280;19751;40.274;18.268;2023-04-10T03:47:53;101092.19;;;9.74;100.00
33404;BME280;19751;40.274;18.268;2023-04-10T03:50:19;101091.31;;;9.81;100.00
33404;BME280;19751;40.274;18.268;2023-04-10T03:52:45;101091.44;;;9.88;100.00
33404;BME280;19751;40.274;18.268;2023-04-10T03:55:10;101094.25;;;9.94;100.00
33404;BME280;19751;40.274;18.268;2023-04-10T03:57:36;101095.59;;;9.99;100.00
33404;BME280;19751;40.274;18.268;2023-04-10T04:00:02;101090.53;;;10.04;100.00
33404;BME280;19751;40.274;18.268;2023-04-10T04:02:28;101084.63;;;10.08;100.00
33404;BME280;19751;40.274;18.268;2023-04-10T04:04:54;101085.44;;;10.09;100.00
33404;BME280;19751;40.274;18.268;2023-04-10T04:07:19;101086.09;;;10.11;100.00
33404;BME280;19751;40.274;18.268;2023-04-10T04:09:45;101082.06;;;10.07;100.00
33404;BME280;19751;40.274;18.268;2023-04-10T04:12:10;101083.00;;;9.91;100.00
33404;BME280;19751;40.274;18.268;2023-04-10T04:14:36;101083.88;;;9.91;100.00
33404;BME280;19751;40.274;18.268;2023-04-10T04:17:01;101078.34;;;9.85;100.00
33404;BME280;19751;40.274;18.268;2023-04-10T04:19:27;101078.53;;;9.83;100.00
33404;BME280;19751;40.274;18.268;2023-04-10T04:21:52;101078.66;;;9.90;100.00
33404;BME280;19751;40.274;18.268;2023-04-10T04:24:18;101085.34;;;9.94;100.00
33404;BME280;19751;40.274;18.268;2023-04-10T04:26:43;101090.19;;;9.99;100.00
33404;BME280;19751;40.274;18.268;2023-04-10T04:29:09;101087.84;;;10.04;100.00
33404;BME280;19751;40.274;18.268;2023-04-10T04:31:34;101084.78;;;10.07;100.00
33404;BME280;19751;40.274;18.268;2023-04-10T04:34:00;101084.63;;;10.08;100.00
33404;BME280;19751;40.274;18.268;2023-04-10T04:36:27;101078.41;;;10.08;100.00
33404;BME280;19751;40.274;18.268;2023-04-10T04:38:53;101082.75;;;10.09;100.00
33404;BME280;19751;40.274;18.268;2023-04-10T04:41:18;101086.28;;;10.09;100.00
33404;BME280;19751;40.274;18.268;2023-04-10T04:43:44;101082.91;;;10.07;100.00
33404;BME280;19751;40.274;18.268;2023-04-10T04:46:12;101087.78;;;10.12;100.00
33404;BME280;19751;40.274;18.268;2023-04-10T04:48:37;101091.13;;;10.14;100.00
33404;BME280;19751;40.274;18.268;2023-04-10T04:51:04;101090.94;;;10.15;100.00
33404;BME280;19751;40.274;18.268;2023-04-10T04:53:30;101086.22;;;10.17;100.00
33404;BME280;19751;40.274;18.268;2023-04-10T04:55:55;101087.91;;;10.18;100.00
33404;BME280;19751;40.274;18.268;2023-04-10T04:58:21;101084.38;;;10.18;100.00
33404;BME280;19751;40.274;18.268;2023-04-10T05:00:50;101092.09;;;10.21;100.00
33404;BME280;19751;40.274;18.268;2023-04-10T05:03:16;101089.56;;;10.19;100.00
33404;BME280;19751;40.274;18.268;2023-04-10T05:05:42;101092.25;;;10.19;100.00
33404;BME280;19751;40.274;18.268;2023-04-10T05:08:08;101100.16;;;10.21;100.00
33404;BME280;19751;40.274;18.268;2023-04-10T05:10:35;101100.81;;;10.23;100.00
33404;BME280;19751;40.274;18.268;2023-04-10T05:13:00;101101.84;;;10.22;100.00
33404;BME280;19751;40.274;18.268;2023-04-10T05:15:26;101101.34;;;10.18;100.00
33404;BME280;19751;40.274;18.268;2023-04-10T05:17:51;101102.53;;;10.16;100.00
33404;BME280;19751;40.274;18.268;2023-04-10T05:20:18;101100.88;;;10.15;100.00
33404;BME280;19751;40.274;18.268;2023-04-10T05:22:44;101107.09;;;10.15;100.00
33404;BME280;19751;40.274;18.268;2023-04-10T05:25:10;101106.25;;;10.15;100.00
33404;BME280;19751;40.274;18.268;2023-04-10T05:27:35;101101.25;;;10.12;100.00
33404;BME280;19751;40.274;18.268;2023-04-10T05:30:02;101100.38;;;10.11;100.00
33404;BME280;19751;40.274;18.268;2023-04-10T05:32:28;101103.56;;;10.15;100.00
33404;BME280;19751;40.274;18.268;2023-04-10T05:34:53;101106.75;;;10.18;100.00
33404;BME280;19751;40.274;18.268;2023-04-10T05:37:19;101111.78;;;10.21;100.00
33404;BME280;19751;40.274;18.268;2023-04-10T05:39:44;101117.16;;;10.21;100.00
33404;BME280;19751;40.274;18.268;2023-04-10T05:42:10;101123.38;;;10.22;100.00
33404;BME280;19751;40.274;18.268;2023-04-10T05:44:35;101118.00;;;10.22;100.00
33404;BME280;19751;40.274;18.268;2023-04-10T05:47:01;101117.69;;;10.25;100.00
33404;BME280;19751;40.274;18.268;2023-04-10T05:49:27;101116.31;;;10.21;100.00
33404;BME280;19751;40.274;18.268;2023-04-10T05:51:52;101118.63;;;10.24;100.00
33404;BME280;19751;40.274;18.268;2023-04-10T05:54:18;101117.69;;;10.25;100.00
33404;BME280;19751;40.274;18.268;2023-04-10T05:56:43;101118.81;;;10.23;100.00
33404;BME280;19751;40.274;18.268;2023-04-10T05:59:09;101125.88;;;10.24;100.00
33404;BME280;19751;40.274;18.268;2023-04-10T06:01:36;101120.19;;;10.27;100.00
33404;BME280;19751;40.274;18.268;2023-04-10T06:04:02;101121.00;;;10.27;100.00
33404;BME280;19751;40.274;18.268;2023-04-10T06:06:27;101121.00;;;10.27;100.00
33404;BME280;19751;40.274;18.268;2023-04-10T06:08:53;101127.44;;;10.26;100.00
33404;BME280;19751;40.274;18.268;2023-04-10T06:11:19;101126.41;;;10.27;100.00
33404;BME280;19751;40.274;18.268;2023-04-10T06:13:46;101124.38;;;10.29;100.00
33404;BME280;19751;40.274;18.268;2023-04-10T06:16:11;101123.00;;;10.33;100.00
33404;BME280;19751;40.274;18.268;2023-04-10T06:18:39;101129.03;;;10.35;100.00
33404;BME280;19751;40.274;18.268;2023-04-10T06:21:05;101130.72;;;10.36;100.00
33404;BME280;19751;40.274;18.268;2023-04-10T06:23:30;101126.00;;;10.38;100.00
33404;BME280;19751;40.274;18.268;2023-04-10T06:25:56;101135.22;;;10.44;100.00
33404;BME280;19751;40.274;18.268;2023-04-10T06:28:22;101128.63;;;10.47;100.00
33404;BME280;19751;40.274;18.268;2023-04-10T06:30:47;101134.66;;;10.49;100.00
33404;BME280;19751;40.274;18.268;2023-04-10T06:33:13;101124.91;;;10.48;100.00
33404;BME280;19751;40.274;18.268;2023-04-10T06:35:39;101126.59;;;10.49;100.00
33404;BME280;19751;40.274;18.268;2023-04-10T06:38:04;101123.06;;;10.48;100.00
33404;BME280;19751;40.274;18.268;2023-04-10T06:40:30;101120.22;;;10.50;100.00
33404;BME280;19751;40.274;18.268;2023-04-10T06:42:58;101124.03;;;10.55;100.00
33404;BME280;19751;40.274;18.268;2023-04-10T06:45:23;101121.63;;;10.60;100.00
33404;BME280;19751;40.274;18.268;2023-04-10T06:47:49;101122.09;;;10.64;100.00
33404;BME280;19751;40.274;18.268;2023-04-10T06:50:15;101117.75;;;10.63;100.00
33404;BME280;19751;40.274;18.268;2023-04-10T06:52:40;101120.25;;;10.64;100.00
33404;BME280;19751;40.274;18.268;2023-04-10T06:55:06;101119.59;;;10.62;100.00
33404;BME280;19751;40.274;18.268;2023-04-10T06:57:32;101123.13;;;10.63;100.00
33404;BME280;19751;40.274;18.268;2023-04-10T06:59:57;101123.13;;;10.63;100.00
33404;BME280;19751;40.274;18.268;2023-04-10T07:02:23;101115.41;;;10.60;100.00
33404;BME280;19751;40.274;18.268;2023-04-10T07:04:48;101117.81;;;10.55;100.00
33404;BME280;19751;40.274;18.268;2023-04-10T07:07:14;101128.38;;;10.56;100.00
33404;BME280;19751;40.274;18.268;2023-04-10T07:09:40;101118.16;;;10.52;100.00
33404;BME280;19751;40.274;18.268;2023-04-10T07:12:06;101126.91;;;10.54;100.00
33404;BME280;19751;40.274;18.268;2023-04-10T07:14:32;101119.81;;;10.53;100.00
33404;BME280;19751;40.274;18.268;2023-04-10T07:17:01;101131.91;;;10.57;100.00
33404;BME280;19751;40.274;18.268;2023-04-10T07:19:27;101128.69;;;10.61;100.00
33404;BME280;19751;40.274;18.268;2023-04-10T07:21:52;101132.25;;;10.62;100.00
33404;BME280;19751;40.274;18.268;2023-04-10T07:24:18;101127.31;;;10.65;100.00
33404;BME280;19751;40.274;18.268;2023-04-10T07:26:44;101131.78;;;10.73;100.00
33404;BME280;19751;40.274;18.268;2023-04-10T07:29:10;101124.38;;;10.75;100.00
33404;BME280;19751;40.274;18.268;2023-04-10T07:31:36;101129.38;;;10.78;100.00
33404;BME280;19751;40.274;18.268;2023-04-10T07:34:02;101122.72;;;10.89;100.00
33404;BME280;19751;40.274;18.268;2023-04-10T07:36:27;101119.13;;;10.97;100.00
33404;BME280;19751;40.274;18.268;2023-04-10T07:38:54;101120.38;;;11.09;100.00
33404;BME280;19751;40.274;18.268;2023-04-10T07:41:19;101117.31;;;11.12;100.00
33404;BME280;19751;40.274;18.268;2023-04-10T07:43:46;101115.63;;;11.11;100.00
33404;BME280;19751;40.274;18.268;2023-04-10T07:46:12;101122.72;;;11.12;100.00
33404;BME280;19751;40.274;18.268;2023-04-10T07:48:37;101118.44;;;11.17;100.00
33404;BME280;19751;40.274;18.268;2023-04-10T07:51:03;101126.22;;;11.27;100.00
33404;BME280;19751;40.274;18.268;2023-04-10T07:53:29;101121.97;;;11.33;100.00
33404;BME280;19751;40.274;18.268;2023-04-10T07:55:55;101117.78;;;11.30;100.00
33404;BME280;19751;40.274;18.268;2023-04-10T07:58:21;101123.19;;;11.30;100.00
33404;BME280;19751;40.274;18.268;2023-04-10T08:00:46;101131.53;;;11.35;100.00
33404;BME280;19751;40.274;18.268;2023-04-10T08:03:14;101130.22;;;11.31;100.00
33404;BME280;19751;40.274;18.268;2023-04-10T08:05:39;101118.81;;;11.29;100.00
33404;BME280;19751;40.274;18.268;2023-04-10T08:08:05;101126.78;;;11.23;100.00
33404;BME280;19751;40.274;18.268;2023-04-10T08:10:30;101124.72;;;11.10;100.00
33404;BME280;19751;40.274;18.268;2023-04-10T08:12:56;101124.38;;;11.13;100.00
33404;BME280;19751;40.274;18.268;2023-04-10T08:15:21;101119.25;;;11.18;100.00
33404;BME280;19751;40.274;18.268;2023-04-10T08:17:47;101126.31;;;11.19;100.00
33404;BME280;19751;40.274;18.268;2023-04-10T08:20:12;101122.97;;;11.17;100.00
33404;BME280;19751;40.274;18.268;2023-04-10T08:22:38;101129.84;;;11.19;100.00
33404;BME280;19751;40.274;18.268;2023-04-10T08:25:04;101131.34;;;11.22;100.00
33404;BME280;19751;40.274;18.268;2023-04-10T08:27:29;101135.00;;;11.29;100.00
33404;BME280;19751;40.274;18.268;2023-04-10T08:29:55;101132.78;;;11.33;100.00
33404;BME280;19751;40.274;18.268;2023-04-10T08:32:21;101130.72;;;11.35;100.00
33404;BME280;19751;40.274;18.268;2023-04-10T08:34:46;101140.09;;;11.39;100.00
33404;BME280;19751;40.274;18.268;2023-04-10T08:37:13;101130.81;;;11.41;100.00
33404;BME280;19751;40.274;18.268;2023-04-10T08:39:40;101137.25;;;11.40;100.00
33404;BME280;19751;40.274;18.268;2023-04-10T08:42:06;101148.56;;;11.36;100.00
33404;BME280;19751;40.274;18.268;2023-04-10T08:44:32;101147.66;;;11.29;100.00
33404;BME280;19751;40.274;18.268;2023-04-10T08:46:58;101139.56;;;11.29;100.00
33404;BME280;19751;40.274;18.268;2023-04-10T08:49:40;101145.94;;;11.28;100.00
33404;BME280;19751;40.274;18.268;2023-04-10T08:52:14;101135.56;;;11.25;100.00
33404;BME280;19751;40.274;18.268;2023-04-10T08:54:43;101141.50;;;11.20;100.00
33404;BME280;19751;40.274;18.268;2023-04-10T08:57:14;101138.81;;;11.20;100.00
33404;BME280;19751;40.274;18.268;2023-04-10T08:59:42;101144.72;;;11.15;100.00
33404;BME280;19751;40.274;18.268;2023-04-10T09:02:08;101132.94;;;11.16;100.00
33404;BME280;19751;40.274;18.268;2023-04-10T09:04:33;101140.47;;;11.21;100.00
33404;BME280;19751;40.274;18.268;2023-04-10T09:06:59;101133.41;;;11.20;100.00
33404;BME280;19751;40.274;18.268;2023-04-10T09:09:27;101142.50;;;11.19;100.00
33404;BME280;19751;40.274;18.268;2023-04-10T09:12:00;101134.97;;;11.14;100.00
33404;BME280;19751;40.274;18.268;2023-04-10T09:14:30;101139.50;;;11.14;100.00
33404;BME280;19751;40.274;18.268;2023-04-10T09:19:43;101133.09;;;11.15;100.00
33404;BME280;19751;40.274;18.268;2023-04-10T09:22:09;101132.75;;;11.18;100.00
33404;BME280;19751;40.274;18.268;2023-04-10T09:24:36;101139.16;;;11.17;100.00
33404;BME280;19751;40.274;18.268;2023-04-10T09:27:05;101127.06;;;11.13;100.00
33404;BME280;19751;40.274;18.268;2023-04-10T09:29:45;101123.34;;;11.14;100.00
33404;BME280;19751;40.274;18.268;2023-04-10T09:32:25;101127.06;;;11.13;100.00
33404;BME280;19751;40.274;18.268;2023-04-10T09:34:59;101125.00;;;11.15;100.00
33404;BME280;19751;40.274;18.268;2023-04-10T09:37:31;101122.63;;;11.20;100.00
33404;BME280;19751;40.274;18.268;2023-04-10T09:39:57;101134.03;;;11.22;100.00
33404;BME280;19751;40.274;18.268;2023-04-10T09:42:34;101122.72;;;11.27;100.00
33404;BME280;19751;40.274;18.268;2023-04-10T09:45:01;101120.47;;;11.30;100.00
33404;BME280;19751;40.274;18.268;2023-04-10T09:47:27;101131.38;;;11.37;100.00
33404;BME280;19751;40.274;18.268;2023-04-10T09:49:55;101139.84;;;11.34;100.00
33404;BME280;19751;40.274;18.268;2023-04-10T09:54:46;101119.75;;;11.36;100.00
33404;BME280;19751;40.274;18.268;2023-04-10T09:57:16;101125.78;;;11.38;100.00
33404;BME280;19751;40.274;18.268;2023-04-10T09:59:50;101127.09;;;11.42;100.00
33404;BME280;19751;40.274;18.268;2023-04-10T10:02:17;101123.38;;;11.43;100.00
33404;BME280;19751;40.274;18.268;2023-04-10T10:04:44;101130.25;;;11.46;100.00
33404;BME280;19751;40.274;18.268;2023-04-10T10:07:12;101120.88;;;11.42;100.00
33404;BME280;19751;40.274;18.268;2023-04-10T10:09:37;101126.44;;;11.40;100.00
33404;BME280;19751;40.274;18.268;2023-04-10T10:12:04;101136.22;;;11.41;100.00
33404;BME280;19751;40.274;18.268;2023-04-10T10:14:32;101120.75;;;11.35;100.00
33404;BME280;19751;40.274;18.268;2023-04-10T10:17:01;101125.31;;;11.35;100.00
33404;BME280;19751;40.274;18.268;2023-04-10T10:19:49;101119.75;;;11.36;100.00
33404;BME280;19751;40.274;18.268;2023-04-10T10:22:18;101116.31;;;11.42;100.00
33404;BME280;19751;40.274;18.268;2023-04-10T10:24:45;101118.06;;;11.50;100.00
33404;BME280;19751;40.274;18.268;2023-04-10T10:27:13;101108.94;;;11.51;100.00
33404;BME280;19751;40.274;18.268;2023-04-10T10:29:40;101106.81;;;11.47;100.00
33404;BME280;19751;40.274;18.268;2023-04-10T10:32:08;101114.63;;;11.41;100.00
33404;BME280;19751;40.274;18.268;2023-04-10T10:34:34;101113.59;;;11.42;100.00
33404;BME280;19751;40.274;18.268;2023-04-10T10:37:00;101110.28;;;11.40;100.00
33404;BME280;19751;40.274;18.268;2023-04-10T10:45:29;101089.41;;;11.34;100.00
33404;BME280;19751;40.274;18.268;2023-04-10T10:47:49;101102.91;;;11.34;100.00
33404;BME280;19751;40.274;18.268;2023-04-10T10:50:15;101101.16;;;11.41;100.00
33404;BME280;19751;40.274;18.268;2023-04-10T10:52:44;101096.13;;;11.53;100.00
33404;BME280;19751;40.274;18.268;2023-04-10T10:58:08;101097.44;;;11.57;100.00
33404;BME280;19751;40.274;18.268;2023-04-10T11:05:56;101085.03;;;11.63;100.00
33404;BME280;19751;40.274;18.268;2023-04-10T11:13:27;101086.91;;;11.62;100.00
33404;BME280;19751;40.274;18.268;2023-04-10T11:15:55;101079.06;;;11.67;100.00
33404;BME280;19751;40.274;18.268;2023-04-10T11:21:13;101077.56;;;11.80;100.00
33404;BME280;19751;40.274;18.268;2023-04-10T11:29:02;101076.34;;;11.97;100.00
33404;BME280;19751;40.274;18.268;2023-04-10T11:31:28;101085.56;;;12.03;100.00
33404;BME280;19751;40.274;18.268;2023-04-10T11:34:03;101068.91;;;11.99;100.00
33404;BME280;19751;40.274;18.268;2023-04-10T11:36:31;101064.84;;;12.10;100.00
33404;BME280;19751;40.274;18.268;2023-04-10T11:39:02;101063.97;;;12.24;100.00
33404;BME280;19751;40.274;18.268;2023-04-10T11:41:31;101071.75;;;12.34;100.00
33404;BME280;19751;40.274;18.268;2023-04-10T11:43:59;101057.06;;;12.43;100.00
33404;BME280;19751;40.274;18.268;2023-04-10T11:46:24;101055.06;;;12.52;100.00
33404;BME280;19751;40.274;18.268;2023-04-10T11:48:58;101055.38;;;12.63;100.00
33404;BME280;19751;40.274;18.268;2023-04-10T11:51:24;101053.78;;;12.69;100.00
33404;BME280;19751;40.274;18.268;2023-04-10T11:54:08;101048.03;;;12.79;100.00
33404;BME280;19751;40.274;18.268;2023-04-10T11:56:34;101041.34;;;12.75;100.00
33404;BME280;19751;40.274;18.268;2023-04-10T11:59:00;101064.69;;;12.82;100.00
33404;BME280;19751;40.274;18.268;2023-04-10T12:01:31;101042.28;;;12.88;100.00
33404;BME280;19751;40.274;18.268;2023-04-10T12:03:57;101046.47;;;12.91;100.00
33404;BME280;19751;40.274;18.268;2023-04-10T12:06:22;101045.63;;;12.90;100.00
33404;BME280;19751;40.274;18.268;2023-04-10T12:08:48;101047.69;;;12.88;100.00
33404;BME280;19751;40.274;18.268;2023-04-10T12:11:23;101047.50;;;12.90;100.00
33404;BME280;19751;40.274;18.268;2023-04-10T12:13:53;101042.72;;;12.92;100.00
33404;BME280;19751;40.274;18.268;2023-04-10T12:16:19;101041.69;;;12.93;100.00
33404;BME280;19751;40.274;18.268;2023-04-10T12:18:44;101036.72;;;12.97;100.00
33404;BME280;19751;40.274;18.268;2023-04-10T12:21:10;101034.16;;;12.88;100.00
33404;BME280;19751;40.274;18.268;2023-04-10T12:23:37;101036.19;;;12.80;100.00
33404;BME280;19751;40.274;18.268;2023-04-10T12:26:11;101026.16;;;12.74;100.00
33404;BME280;19751;40.274;18.268;2023-04-10T12:28:38;101023.25;;;12.75;100.00
33404;BME280;19751;40.274;18.268;2023-04-10T12:31:04;101033.47;;;12.80;100.00
33404;BME280;19751;40.274;18.268;2023-04-10T12:33:30;101029.59;;;12.89;100.00
33404;BME280;19751;40.274;18.268;2023-04-10T12:35:56;101011.53;;;12.96;100.00
33404;BME280;19751;40.274;18.268;2023-04-10T12:38:41;101010.78;;;13.09;100.00
33404;BME280;19751;40.274;18.268;2023-04-10T12:41:08;101016.25;;;13.15;100.00
33404;BME280;19751;40.274;18.268;2023-04-10T12:43:35;101015.06;;;13.25;100.00
33404;BME280;19751;40.274;18.268;2023-04-10T12:46:01;101022.81;;;13.34;100.00
33404;BME280;19751;40.274;18.268;2023-04-10T12:48:27;101019.50;;;13.39;100.00
33404;BME280;19751;40.274;18.268;2023-04-10T12:50:53;101032.19;;;13.38;100.00
33404;BME280;19751;40.274;18.268;2023-04-10T12:53:19;101026.78;;;13.38;100.00
33404;BME280;19751;40.274;18.268;2023-04-10T12:56:07;101027.00;;;13.43;100.00
33404;BME280;19751;40.274;18.268;2023-04-10T12:58:32;101022.25;;;13.46;100.00
33404;BME280;19751;40.274;18.268;2023-04-10T13:01:02;101019.53;;;13.46;100.00
33404;BME280;19751;40.274;18.268;2023-04-10T13:03:32;101020.31;;;13.39;100.00
33404;BME280;19751;40.274;18.268;2023-04-10T13:05:57;101013.06;;;13.40;100.00
33404;BME280;19751;40.274;18.268;2023-04-10T13:08:23;101022.19;;;13.39;100.00
33404;BME280;19751;40.274;18.268;2023-04-10T13:10:49;101006.78;;;13.33;100.00
33404;BME280;19751;40.274;18.268;2023-04-10T13:13:15;101011.16;;;13.34;100.00
33404;BME280;19751;40.274;18.268;2023-04-10T13:15:41;101002.22;;;13.33;100.00
33404;BME280;19751;40.274;18.268;2023-04-10T13:18:07;101004.69;;;13.35;100.00